Αρχική σελίδα
METAR-TAF:

METAR-TAF

Αεροδρόμια :

Κορόρ, Babeldaob, Παλάου

γεωγραφικό πλάτος: 07-22N, γεωγραφικό μήκος: 134-32E, υψόμετρο: 54 μ

Παρών καιρός

Η αναφορά έγινε 13 λεπτά πριν, στις 03:50 UTC
Άνεμος 6 kt από Δ/BΔ
Θερμοκρασία 30°C
Υγρασία 70%
Πίεση 1010 hPa
Ορατότητα: 24.1 χλμ
Λίγα νέφη σε ύψος 1000 πόδια
Διάσπαρτα νέφη σε ύψος 1600 πόδια
Αρκετά νέφη σε ύψος 12000 πόδια
Αρκετά νέφη σε ύψος 30000 πόδια

METAR: PTRO 180350Z 30006KT 15SM FEW010 SCT016 BKN120 BKN300 30/24 A2982

Χρόνος: 13:03 (04:03 UTC)

Πρόγνωση Καιρού

Η αναφορά έγινε 4 ώρες και 24 λεπτά πριν, στις 23:39 UTC
Η πρόγνωση ισχύει από τις 18 στις 00 UTC έως τις 18 στις 24 UTC
Άνεμος 8 kt από Δ
Ορατότητα: 10 χλμ
Διάσπαρτα νέφη σε ύψος 1600 πόδια
Αρκετά νέφη σε ύψος 12000 πόδια
Όμβροι σε κοντινή απόσταση

TAF: PTRO 172339Z 1800/1824 28008KT P6SM VCSH SCT016 BKN120

Μετεωρολογικές αναφορές και προγνώσεις για περισσότερα από 4000 αεροδρόμια (δελτία METAR και TAF).

Οι διαθέσιμοι σταθμοί απεικονίζονται στο χάρτη με κίτρινες και κόκκινες κουκκίδες.

Μετακινήστε το ποντίκι πάνω από τις κουκκίδες για να δείτε το όνομα του σταθμού.

Στη συνέχεια, κάντε κλικ για να δείτε τις μετεωρολογικές αναφορές και τις προγνώσεις καιρού.

Για να αλλάξετε το χάρτη: κάντε κλικ στα πράσινα κουμπιά με τον μαύρο σταυρό για να ζουμάρετε, στο πράσινο κουμπί με την παύλα για να αφαιρέσετε το ζουμ ή στα πράσινα βέλη για να αντιπαραβάλλετε χάρτες.


METAR-TAF: